sensor_id;sensor_type;location;lat;lon;timestamp;P1;durP1;ratioP1;P2;durP2;ratioP2
13122;SDS011;6627;50.920;12.050;2023-02-13T00:00:44;29.83;;;17.60;;
13122;SDS011;6627;50.920;12.050;2023-02-13T00:03:12;32.20;;;18.50;;
13122;SDS011;6627;50.920;12.050;2023-02-13T00:05:42;31.93;;;17.90;;
13122;SDS011;6627;50.920;12.050;2023-02-13T00:08:09;29.07;;;17.17;;
13122;SDS011;6627;50.920;12.050;2023-02-13T00:10:37;33.53;;;17.17;;
13122;SDS011;6627;50.920;12.050;2023-02-13T00:13:04;29.30;;;17.13;;
13122;SDS011;6627;50.920;12.050;2023-02-13T00:15:31;29.90;;;15.87;;
13122;SDS011;6627;50.920;12.050;2023-02-13T00:18:00;36.67;;;17.43;;
13122;SDS011;6627;50.920;12.050;2023-02-13T00:20:28;27.50;;;16.03;;
13122;SDS011;6627;50.920;12.050;2023-02-13T00:22:58;27.00;;;16.27;;
13122;SDS011;6627;50.920;12.050;2023-02-13T00:25:25;32.80;;;17.63;;
13122;SDS011;6627;50.920;12.050;2023-02-13T00:27:52;28.47;;;17.40;;
13122;SDS011;6627;50.920;12.050;2023-02-13T00:30:20;27.67;;;16.40;;
13122;SDS011;6627;50.920;12.050;2023-02-13T00:32:48;28.77;;;15.97;;
13122;SDS011;6627;50.920;12.050;2023-02-13T00:35:15;29.20;;;16.43;;
13122;SDS011;6627;50.920;12.050;2023-02-13T00:37:42;27.27;;;15.73;;
13122;SDS011;6627;50.920;12.050;2023-02-13T00:40:11;29.23;;;16.07;;
13122;SDS011;6627;50.920;12.050;2023-02-13T00:42:39;26.90;;;15.43;;
13122;SDS011;6627;50.920;12.050;2023-02-13T00:45:07;25.47;;;16.07;;
13122;SDS011;6627;50.920;12.050;2023-02-13T00:47:35;26.73;;;14.97;;
13122;SDS011;6627;50.920;12.050;2023-02-13T00:50:02;27.17;;;14.87;;
13122;SDS011;6627;50.920;12.050;2023-02-13T00:52:31;24.20;;;14.53;;
13122;SDS011;6627;50.920;12.050;2023-02-13T00:54:59;23.87;;;13.93;;
13122;SDS011;6627;50.920;12.050;2023-02-13T00:57:27;26.00;;;13.73;;
13122;SDS011;6627;50.920;12.050;2023-02-13T01:02:27;27.07;;;14.93;;
13122;SDS011;6627;50.920;12.050;2023-02-13T01:04:54;23.60;;;13.53;;
13122;SDS011;6627;50.920;12.050;2023-02-13T01:07:21;25.33;;;13.33;;
13122;SDS011;6627;50.920;12.050;2023-02-13T01:09:49;22.77;;;13.60;;
13122;SDS011;6627;50.920;12.050;2023-02-13T01:12:16;23.37;;;13.80;;
13122;SDS011;6627;50.920;12.050;2023-02-13T01:14:45;26.80;;;13.57;;
13122;SDS011;6627;50.920;12.050;2023-02-13T01:17:12;28.17;;;14.33;;
13122;SDS011;6627;50.920;12.050;2023-02-13T01:19:39;24.27;;;13.40;;
13122;SDS011;6627;50.920;12.050;2023-02-13T01:22:07;30.27;;;13.43;;
13122;SDS011;6627;50.920;12.050;2023-02-13T01:24:35;27.83;;;13.87;;
13122;SDS011;6627;50.920;12.050;2023-02-13T01:27:02;25.43;;;13.90;;
13122;SDS011;6627;50.920;12.050;2023-02-13T01:29:30;24.33;;;13.13;;
13122;SDS011;6627;50.920;12.050;2023-02-13T01:31:59;24.20;;;12.90;;
13122;SDS011;6627;50.920;12.050;2023-02-13T01:34:28;24.13;;;14.50;;
13122;SDS011;6627;50.920;12.050;2023-02-13T01:36:55;22.60;;;13.07;;
13122;SDS011;6627;50.920;12.050;2023-02-13T01:39:23;20.70;;;12.47;;
13122;SDS011;6627;50.920;12.050;2023-02-13T01:41:51;23.77;;;14.00;;
13122;SDS011;6627;50.920;12.050;2023-02-13T01:47:21;23.83;;;14.57;;
13122;SDS011;6627;50.920;12.050;2023-02-13T01:50:01;26.37;;;14.80;;
13122;SDS011;6627;50.920;12.050;2023-02-13T01:52:33;23.00;;;14.10;;
13122;SDS011;6627;50.920;12.050;2023-02-13T01:55:08;24.40;;;14.37;;
13122;SDS011;6627;50.920;12.050;2023-02-13T01:57:37;32.40;;;16.13;;
13122;SDS011;6627;50.920;12.050;2023-02-13T02:00:11;23.87;;;15.20;;
13122;SDS011;6627;50.920;12.050;2023-02-13T02:02:43;24.60;;;14.27;;
13122;SDS011;6627;50.920;12.050;2023-02-13T02:05:16;22.57;;;13.87;;
13122;SDS011;6627;50.920;12.050;2023-02-13T02:07:47;23.87;;;15.40;;
13122;SDS011;6627;50.920;12.050;2023-02-13T02:10:17;25.80;;;14.60;;
13122;SDS011;6627;50.920;12.050;2023-02-13T02:12:46;22.07;;;14.33;;
13122;SDS011;6627;50.920;12.050;2023-02-13T02:15:27;26.87;;;15.30;;
13122;SDS011;6627;50.920;12.050;2023-02-13T02:17:58;22.90;;;14.33;;
13122;SDS011;6627;50.920;12.050;2023-02-13T02:20:32;22.87;;;14.57;;
13122;SDS011;6627;50.920;12.050;2023-02-13T02:23:41;24.80;;;14.20;;
13122;SDS011;6627;50.920;12.050;2023-02-13T02:26:55;23.67;;;13.63;;
13122;SDS011;6627;50.920;12.050;2023-02-13T02:33:14;22.50;;;13.67;;
13122;SDS011;6627;50.920;12.050;2023-02-13T02:35:57;22.73;;;14.47;;
13122;SDS011;6627;50.920;12.050;2023-02-13T02:38:51;24.47;;;14.13;;
13122;SDS011;6627;50.920;12.050;2023-02-13T02:41:38;25.60;;;15.37;;
13122;SDS011;6627;50.920;12.050;2023-02-13T02:44:27;24.10;;;14.67;;
13122;SDS011;6627;50.920;12.050;2023-02-13T02:47:07;24.07;;;14.67;;
13122;SDS011;6627;50.920;12.050;2023-02-13T02:50:10;23.03;;;14.47;;
13122;SDS011;6627;50.920;12.050;2023-02-13T02:52:56;22.30;;;14.40;;
13122;SDS011;6627;50.920;12.050;2023-02-13T02:55:35;23.90;;;14.73;;
13122;SDS011;6627;50.920;12.050;2023-02-13T02:58:10;23.57;;;14.77;;
13122;SDS011;6627;50.920;12.050;2023-02-13T03:01:03;23.83;;;13.20;;
13122;SDS011;6627;50.920;12.050;2023-02-13T03:03:54;19.83;;;13.37;;
13122;SDS011;6627;50.920;12.050;2023-02-13T03:06:44;23.23;;;14.37;;
13122;SDS011;6627;50.920;12.050;2023-02-13T03:09:18;21.67;;;14.60;;
13122;SDS011;6627;50.920;12.050;2023-02-13T03:12:09;20.57;;;14.00;;
13122;SDS011;6627;50.920;12.050;2023-02-13T03:15:00;24.10;;;13.93;;
13122;SDS011;6627;50.920;12.050;2023-02-13T03:17:28;23.37;;;14.23;;
13122;SDS011;6627;50.920;12.050;2023-02-13T03:20:15;20.53;;;13.87;;
13122;SDS011;6627;50.920;12.050;2023-02-13T03:23:16;22.43;;;13.60;;
13122;SDS011;6627;50.920;12.050;2023-02-13T03:26:03;22.73;;;13.63;;
13122;SDS011;6627;50.920;12.050;2023-02-13T03:29:00;24.03;;;13.77;;
13122;SDS011;6627;50.920;12.050;2023-02-13T03:31:59;22.40;;;13.57;;
13122;SDS011;6627;50.920;12.050;2023-02-13T03:34:45;23.63;;;14.37;;
13122;SDS011;6627;50.920;12.050;2023-02-13T03:37:48;20.10;;;12.80;;
13122;SDS011;6627;50.920;12.050;2023-02-13T03:40:25;22.27;;;13.37;;
13122;SDS011;6627;50.920;12.050;2023-02-13T03:43:02;22.23;;;13.83;;
13122;SDS011;6627;50.920;12.050;2023-02-13T03:45:37;20.13;;;13.10;;
13122;SDS011;6627;50.920;12.050;2023-02-13T03:48:23;19.23;;;13.00;;
13122;SDS011;6627;50.920;12.050;2023-02-13T03:51:13;21.23;;;13.43;;
13122;SDS011;6627;50.920;12.050;2023-02-13T03:53:48;21.07;;;13.43;;
13122;SDS011;6627;50.920;12.050;2023-02-13T03:56:22;23.63;;;13.47;;
13122;SDS011;6627;50.920;12.050;2023-02-13T03:59:14;18.50;;;12.93;;
13122;SDS011;6627;50.920;12.050;2023-02-13T04:01:52;20.47;;;12.67;;
13122;SDS011;6627;50.920;12.050;2023-02-13T04:04:29;19.80;;;12.70;;
13122;SDS011;6627;50.920;12.050;2023-02-13T04:07:07;17.90;;;12.90;;
13122;SDS011;6627;50.920;12.050;2023-02-13T04:09:53;16.63;;;12.13;;
13122;SDS011;6627;50.920;12.050;2023-02-13T04:12:25;15.23;;;11.80;;
13122;SDS011;6627;50.920;12.050;2023-02-13T04:15:03;16.53;;;11.97;;
13122;SDS011;6627;50.920;12.050;2023-02-13T04:17:38;14.90;;;11.87;;
13122;SDS011;6627;50.920;12.050;2023-02-13T04:20:13;13.73;;;11.33;;
13122;SDS011;6627;50.920;12.050;2023-02-13T04:22:41;15.70;;;11.80;;
13122;SDS011;6627;50.920;12.050;2023-02-13T04:25:11;14.53;;;11.13;;
13122;SDS011;6627;50.920;12.050;2023-02-13T04:27:42;14.83;;;11.17;;
13122;SDS011;6627;50.920;12.050;2023-02-13T04:30:09;14.03;;;11.87;;
13122;SDS011;6627;50.920;12.050;2023-02-13T04:32:38;12.40;;;10.77;;
13122;SDS011;6627;50.920;12.050;2023-02-13T04:35:05;14.23;;;12.03;;
13122;SDS011;6627;50.920;12.050;2023-02-13T04:37:34;13.97;;;11.80;;
13122;SDS011;6627;50.920;12.050;2023-02-13T04:40:01;18.70;;;15.70;;
13122;SDS011;6627;50.920;12.050;2023-02-13T04:42:28;28.20;;;22.13;;
13122;SDS011;6627;50.920;12.050;2023-02-13T04:44:56;19.67;;;16.13;;
13122;SDS011;6627;50.920;12.050;2023-02-13T04:47:24;19.53;;;15.93;;
13122;SDS011;6627;50.920;12.050;2023-02-13T04:49:51;19.63;;;16.43;;
13122;SDS011;6627;50.920;12.050;2023-02-13T04:52:18;22.30;;;18.17;;
13122;SDS011;6627;50.920;12.050;2023-02-13T04:54:45;30.10;;;22.53;;
13122;SDS011;6627;50.920;12.050;2023-02-13T04:57:12;23.53;;;18.20;;
13122;SDS011;6627;50.920;12.050;2023-02-13T04:59:40;33.70;;;27.53;;
13122;SDS011;6627;50.920;12.050;2023-02-13T05:02:08;49.90;;;36.47;;
13122;SDS011;6627;50.920;12.050;2023-02-13T05:04:35;41.30;;;32.23;;
13122;SDS011;6627;50.920;12.050;2023-02-13T05:07:02;33.53;;;26.33;;
13122;SDS011;6627;50.920;12.050;2023-02-13T05:09:29;26.97;;;20.27;;
13122;SDS011;6627;50.920;12.050;2023-02-13T05:11:57;16.83;;;13.63;;
13122;SDS011;6627;50.920;12.050;2023-02-13T05:14:24;11.43;;;10.23;;
13122;SDS011;6627;50.920;12.050;2023-02-13T05:16:51;11.33;;;10.13;;
13122;SDS011;6627;50.920;12.050;2023-02-13T05:19:20;10.70;;;9.60;;
13122;SDS011;6627;50.920;12.050;2023-02-13T05:21:59;10.27;;;9.27;;
13122;SDS011;6627;50.920;12.050;2023-02-13T05:24:52;10.03;;;8.97;;
13122;SDS011;6627;50.920;12.050;2023-02-13T05:27:19;10.57;;;9.47;;
13122;SDS011;6627;50.920;12.050;2023-02-13T05:29:46;10.43;;;9.10;;
13122;SDS011;6627;50.920;12.050;2023-02-13T05:32:13;11.13;;;9.93;;
13122;SDS011;6627;50.920;12.050;2023-02-13T05:34:42;12.43;;;10.57;;
13122;SDS011;6627;50.920;12.050;2023-02-13T05:37:09;10.67;;;9.40;;
13122;SDS011;6627;50.920;12.050;2023-02-13T05:39:36;11.07;;;9.97;;
13122;SDS011;6627;50.920;12.050;2023-02-13T05:42:04;10.37;;;9.27;;
13122;SDS011;6627;50.920;12.050;2023-02-13T05:44:31;11.57;;;10.37;;
13122;SDS011;6627;50.920;12.050;2023-02-13T05:46:58;11.20;;;9.70;;
13122;SDS011;6627;50.920;12.050;2023-02-13T05:49:26;11.47;;;10.27;;
13122;SDS011;6627;50.920;12.050;2023-02-13T05:51:54;11.30;;;10.13;;
13122;SDS011;6627;50.920;12.050;2023-02-13T05:54:22;10.80;;;9.70;;
13122;SDS011;6627;50.920;12.050;2023-02-13T05:56:49;12.07;;;10.37;;
13122;SDS011;6627;50.920;12.050;2023-02-13T05:59:16;11.63;;;10.43;;
13122;SDS011;6627;50.920;12.050;2023-02-13T06:01:44;12.03;;;10.73;;
13122;SDS011;6627;50.920;12.050;2023-02-13T06:04:12;11.63;;;10.17;;
13122;SDS011;6627;50.920;12.050;2023-02-13T06:06:39;13.30;;;11.43;;
13122;SDS011;6627;50.920;12.050;2023-02-13T06:09:07;13.63;;;11.00;;
13122;SDS011;6627;50.920;12.050;2023-02-13T06:11:34;12.73;;;11.30;;
13122;SDS011;6627;50.920;12.050;2023-02-13T06:14:02;12.07;;;10.80;;
13122;SDS011;6627;50.920;12.050;2023-02-13T06:16:29;12.70;;;11.30;;
13122;SDS011;6627;50.920;12.050;2023-02-13T06:18:56;15.33;;;12.10;;
13122;SDS011;6627;50.920;12.050;2023-02-13T06:21:23;13.80;;;11.80;;
13122;SDS011;6627;50.920;12.050;2023-02-13T06:23:50;14.03;;;11.63;;
13122;SDS011;6627;50.920;12.050;2023-02-13T06:26:19;14.67;;;11.70;;
13122;SDS011;6627;50.920;12.050;2023-02-13T06:28:47;14.53;;;11.73;;
13122;SDS011;6627;50.920;12.050;2023-02-13T06:31:15;13.40;;;11.03;;
13122;SDS011;6627;50.920;12.050;2023-02-13T06:33:42;15.07;;;11.77;;
13122;SDS011;6627;50.920;12.050;2023-02-13T06:36:10;15.47;;;12.30;;
13122;SDS011;6627;50.920;12.050;2023-02-13T06:38:38;16.43;;;12.37;;
13122;SDS011;6627;50.920;12.050;2023-02-13T06:41:05;17.03;;;12.03;;
13122;SDS011;6627;50.920;12.050;2023-02-13T06:43:42;17.93;;;11.97;;
13122;SDS011;6627;50.920;12.050;2023-02-13T06:46:09;17.43;;;11.53;;
13122;SDS011;6627;50.920;12.050;2023-02-13T06:48:36;17.93;;;11.47;;
13122;SDS011;6627;50.920;12.050;2023-02-13T06:51:04;17.93;;;11.47;;
13122;SDS011;6627;50.920;12.050;2023-02-13T06:53:31;17.90;;;11.87;;
13122;SDS011;6627;50.920;12.050;2023-02-13T06:56:01;16.90;;;11.57;;
13122;SDS011;6627;50.920;12.050;2023-02-13T06:58:34;18.67;;;11.67;;
13122;SDS011;6627;50.920;12.050;2023-02-13T07:01:04;16.83;;;11.83;;
13122;SDS011;6627;50.920;12.050;2023-02-13T07:03:35;15.77;;;10.80;;
13122;SDS011;6627;50.920;12.050;2023-02-13T07:06:22;16.90;;;11.07;;
13122;SDS011;6627;50.920;12.050;2023-02-13T07:08:55;15.73;;;10.57;;
13122;SDS011;6627;50.920;12.050;2023-02-13T07:11:42;16.93;;;11.03;;
13122;SDS011;6627;50.920;12.050;2023-02-13T07:14:11;16.43;;;10.43;;
13122;SDS011;6627;50.920;12.050;2023-02-13T07:16:39;17.73;;;11.73;;
13122;SDS011;6627;50.920;12.050;2023-02-13T07:19:06;19.00;;;11.73;;
13122;SDS011;6627;50.920;12.050;2023-02-13T07:21:34;15.47;;;10.43;;
13122;SDS011;6627;50.920;12.050;2023-02-13T07:24:03;18.53;;;11.47;;
13122;SDS011;6627;50.920;12.050;2023-02-13T07:26:35;16.47;;;10.17;;
13122;SDS011;6627;50.920;12.050;2023-02-13T07:29:03;19.00;;;10.67;;
13122;SDS011;6627;50.920;12.050;2023-02-13T07:31:31;17.90;;;10.60;;
13122;SDS011;6627;50.920;12.050;2023-02-13T07:34:00;15.67;;;9.40;;
13122;SDS011;6627;50.920;12.050;2023-02-13T07:36:27;17.37;;;9.37;;
13122;SDS011;6627;50.920;12.050;2023-02-13T07:38:55;15.27;;;9.70;;
13122;SDS011;6627;50.920;12.050;2023-02-13T07:41:22;14.13;;;9.10;;
13122;SDS011;6627;50.920;12.050;2023-02-13T07:43:52;15.47;;;8.80;;
13122;SDS011;6627;50.920;12.050;2023-02-13T07:46:21;13.90;;;8.57;;
13122;SDS011;6627;50.920;12.050;2023-02-13T07:48:50;15.97;;;9.93;;
13122;SDS011;6627;50.920;12.050;2023-02-13T07:51:19;14.60;;;9.07;;
13122;SDS011;6627;50.920;12.050;2023-02-13T07:53:50;16.80;;;9.90;;
13122;SDS011;6627;50.920;12.050;2023-02-13T07:56:19;14.37;;;9.30;;
13122;SDS011;6627;50.920;12.050;2023-02-13T07:58:47;13.97;;;8.80;;
13122;SDS011;6627;50.920;12.050;2023-02-13T08:01:23;16.93;;;9.90;;
13122;SDS011;6627;50.920;12.050;2023-02-13T08:03:51;15.43;;;8.37;;
13122;SDS011;6627;50.920;12.050;2023-02-13T08:06:20;15.67;;;9.40;;
13122;SDS011;6627;50.920;12.050;2023-02-13T08:08:49;14.37;;;8.53;;
13122;SDS011;6627;50.920;12.050;2023-02-13T08:11:36;13.53;;;8.60;;
13122;SDS011;6627;50.920;12.050;2023-02-13T08:14:19;13.83;;;9.33;;
13122;SDS011;6627;50.920;12.050;2023-02-13T08:16:47;13.00;;;8.80;;
13122;SDS011;6627;50.920;12.050;2023-02-13T08:19:14;15.53;;;8.67;;
13122;SDS011;6627;50.920;12.050;2023-02-13T08:21:43;15.17;;;9.30;;
13122;SDS011;6627;50.920;12.050;2023-02-13T08:24:11;14.67;;;8.83;;
13122;SDS011;6627;50.920;12.050;2023-02-13T08:26:39;13.03;;;8.27;;
13122;SDS011;6627;50.920;12.050;2023-02-13T08:29:06;12.73;;;8.17;;
13122;SDS011;6627;50.920;12.050;2023-02-13T08:31:34;12.33;;;7.40;;
13122;SDS011;6627;50.920;12.050;2023-02-13T08:34:02;12.60;;;8.37;;
13122;SDS011;6627;50.920;12.050;2023-02-13T08:36:29;13.13;;;8.10;;
13122;SDS011;6627;50.920;12.050;2023-02-13T08:38:59;13.33;;;8.67;;
13122;SDS011;6627;50.920;12.050;2023-02-13T08:41:26;12.23;;;7.87;;
13122;SDS011;6627;50.920;12.050;2023-02-13T08:43:53;11.90;;;8.20;;
13122;SDS011;6627;50.920;12.050;2023-02-13T08:46:20;16.37;;;9.60;;
13122;SDS011;6627;50.920;12.050;2023-02-13T08:48:48;14.50;;;8.90;;
13122;SDS011;6627;50.920;12.050;2023-02-13T08:51:16;14.97;;;9.03;;
13122;SDS011;6627;50.920;12.050;2023-02-13T08:53:44;14.50;;;9.43;;
13122;SDS011;6627;50.920;12.050;2023-02-13T08:56:14;13.07;;;8.60;;
13122;SDS011;6627;50.920;12.050;2023-02-13T08:58:41;12.93;;;9.37;;
13122;SDS011;6627;50.920;12.050;2023-02-13T09:01:09;12.53;;;9.33;;
13122;SDS011;6627;50.920;12.050;2023-02-13T09:03:36;11.93;;;8.83;;
13122;SDS011;6627;50.920;12.050;2023-02-13T09:06:04;13.10;;;9.00;;
13122;SDS011;6627;50.920;12.050;2023-02-13T09:08:34;11.97;;;9.03;;
13122;SDS011;6627;50.920;12.050;2023-02-13T09:11:02;12.53;;;9.93;;
13122;SDS011;6627;50.920;12.050;2023-02-13T09:13:39;13.47;;;9.60;;
13122;SDS011;6627;50.920;12.050;2023-02-13T09:16:26;11.37;;;8.97;;
13122;SDS011;6627;50.920;12.050;2023-02-13T09:18:53;10.97;;;8.97;;
13122;SDS011;6627;50.920;12.050;2023-02-13T09:21:21;10.77;;;9.23;;
13122;SDS011;6627;50.920;12.050;2023-02-13T09:23:52;10.20;;;8.40;;
13122;SDS011;6627;50.920;12.050;2023-02-13T09:26:21;9.87;;;8.33;;
13122;SDS011;6627;50.920;12.050;2023-02-13T09:28:51;8.70;;;7.70;;
13122;SDS011;6627;50.920;12.050;2023-02-13T09:31:24;9.00;;;7.93;;
13122;SDS011;6627;50.920;12.050;2023-02-13T09:33:55;10.40;;;8.67;;
13122;SDS011;6627;50.920;12.050;2023-02-13T09:36:23;9.40;;;7.97;;
13122;SDS011;6627;50.920;12.050;2023-02-13T09:38:52;9.13;;;8.13;;
13122;SDS011;6627;50.920;12.050;2023-02-13T09:41:22;9.13;;;8.00;;
13122;SDS011;6627;50.920;12.050;2023-02-13T09:43:55;8.90;;;7.43;;
13122;SDS011;6627;50.920;12.050;2023-02-13T09:46:30;9.07;;;7.80;;
13122;SDS011;6627;50.920;12.050;2023-02-13T09:49:03;9.57;;;7.30;;
13122;SDS011;6627;50.920;12.050;2023-02-13T09:51:37;7.90;;;7.10;;
13122;SDS011;6627;50.920;12.050;2023-02-13T09:54:07;8.13;;;7.33;;
13122;SDS011;6627;50.920;12.050;2023-02-13T09:56:47;7.80;;;7.00;;
13122;SDS011;6627;50.920;12.050;2023-02-13T09:59:30;7.87;;;7.07;;
13122;SDS011;6627;50.920;12.050;2023-02-13T10:02:20;9.10;;;7.40;;
13122;SDS011;6627;50.920;12.050;2023-02-13T10:05:07;8.97;;;7.90;;
13122;SDS011;6627;50.920;12.050;2023-02-13T10:07:52;9.10;;;7.73;;
13122;SDS011;6627;50.920;12.050;2023-02-13T10:10:37;8.13;;;7.17;;
13122;SDS011;6627;50.920;12.050;2023-02-13T10:13:23;8.70;;;7.30;;
13122;SDS011;6627;50.920;12.050;2023-02-13T10:16:13;8.60;;;7.27;;
13122;SDS011;6627;50.920;12.050;2023-02-13T10:18:47;8.47;;;7.57;;
13122;SDS011;6627;50.920;12.050;2023-02-13T10:21:20;8.70;;;7.67;;
13122;SDS011;6627;50.920;12.050;2023-02-13T10:23:54;8.93;;;7.93;;
13122;SDS011;6627;50.920;12.050;2023-02-13T10:26:28;8.37;;;7.47;;
13122;SDS011;6627;50.920;12.050;2023-02-13T10:29:09;8.93;;;7.47;;
13122;SDS011;6627;50.920;12.050;2023-02-13T10:32:07;8.50;;;7.60;;
13122;SDS011;6627;50.920;12.050;2023-02-13T10:34:45;8.77;;;7.30;;
13122;SDS011;6627;50.920;12.050;2023-02-13T10:37:16;8.23;;;7.43;;
13122;SDS011;6627;50.920;12.050;2023-02-13T10:39:48;8.90;;;7.87;;
13122;SDS011;6627;50.920;12.050;2023-02-13T10:42:20;9.13;;;8.13;;
13122;SDS011;6627;50.920;12.050;2023-02-13T10:45:20;11.10;;;9.47;;
13122;SDS011;6627;50.920;12.050;2023-02-13T10:48:13;10.90;;;9.30;;
13122;SDS011;6627;50.920;12.050;2023-02-13T10:51:06;12.87;;;10.00;;
13122;SDS011;6627;50.920;12.050;2023-02-13T10:53:48;12.70;;;9.10;;
13122;SDS011;6627;50.920;12.050;2023-02-13T10:56:34;10.83;;;9.30;;
13122;SDS011;6627;50.920;12.050;2023-02-13T10:59:22;10.27;;;9.13;;
13122;SDS011;6627;50.920;12.050;2023-02-13T11:02:20;11.77;;;9.63;;
13122;SDS011;6627;50.920;12.050;2023-02-13T11:04:53;11.27;;;9.57;;
13122;SDS011;6627;50.920;12.050;2023-02-13T11:07:26;10.97;;;9.00;;
13122;SDS011;6627;50.920;12.050;2023-02-13T11:09:57;10.13;;;8.40;;
13122;SDS011;6627;50.920;12.050;2023-02-13T11:12:35;10.47;;;9.10;;
13122;SDS011;6627;50.920;12.050;2023-02-13T11:15:04;11.37;;;9.43;;
13122;SDS011;6627;50.920;12.050;2023-02-13T11:17:46;10.83;;;9.13;;
13122;SDS011;6627;50.920;12.050;2023-02-13T11:20:27;9.27;;;8.13;;
13122;SDS011;6627;50.920;12.050;2023-02-13T11:26:04;9.83;;;7.83;;
13122;SDS011;6627;50.920;12.050;2023-02-13T11:28:36;10.13;;;8.83;;
13122;SDS011;6627;50.920;12.050;2023-02-13T11:31:09;9.47;;;7.97;;
13122;SDS011;6627;50.920;12.050;2023-02-13T11:33:45;9.33;;;8.33;;
13122;SDS011;6627;50.920;12.050;2023-02-13T11:36:16;10.80;;;8.10;;
13122;SDS011;6627;50.920;12.050;2023-02-13T11:38:57;10.07;;;7.53;;
13122;SDS011;6627;50.920;12.050;2023-02-13T11:41:28;10.07;;;8.00;;
13122;SDS011;6627;50.920;12.050;2023-02-13T11:44:16;9.17;;;8.10;;
13122;SDS011;6627;50.920;12.050;2023-02-13T11:46:53;8.83;;;7.30;;
13122;SDS011;6627;50.920;12.050;2023-02-13T11:49:24;9.53;;;7.87;;
13122;SDS011;6627;50.920;12.050;2023-02-13T11:51:56;8.87;;;7.97;;
13122;SDS011;6627;50.920;12.050;2023-02-13T11:54:28;8.90;;;7.63;;
13122;SDS011;6627;50.920;12.050;2023-02-13T11:56:59;11.07;;;7.90;;
13122;SDS011;6627;50.920;12.050;2023-02-13T11:59:30;8.83;;;7.93;;
13122;SDS011;6627;50.920;12.050;2023-02-13T12:02:12;8.40;;;7.50;;
13122;SDS011;6627;50.920;12.050;2023-02-13T12:04:44;9.33;;;7.30;;
13122;SDS011;6627;50.920;12.050;2023-02-13T12:07:18;10.53;;;7.90;;
13122;SDS011;6627;50.920;12.050;2023-02-13T12:09:53;10.70;;;8.10;;
13122;SDS011;6627;50.920;12.050;2023-02-13T12:12:29;8.90;;;8.00;;
13122;SDS011;6627;50.920;12.050;2023-02-13T12:15:09;10.23;;;7.73;;
13122;SDS011;6627;50.920;12.050;2023-02-13T12:17:45;10.97;;;7.33;;
13122;SDS011;6627;50.920;12.050;2023-02-13T12:20:23;12.17;;;7.93;;
13122;SDS011;6627;50.920;12.050;2023-02-13T12:23:00;11.90;;;8.90;;
13122;SDS011;6627;50.920;12.050;2023-02-13T12:25:40;12.47;;;7.03;;
13122;SDS011;6627;50.920;12.050;2023-02-13T12:28:27;8.77;;;7.47;;
13122;SDS011;6627;50.920;12.050;2023-02-13T12:31:19;8.17;;;7.27;;
13122;SDS011;6627;50.920;12.050;2023-02-13T12:34:24;10.77;;;8.07;;
13122;SDS011;6627;50.920;12.050;2023-02-13T12:37:40;9.93;;;8.00;;
13122;SDS011;6627;50.920;12.050;2023-02-13T12:40:25;8.47;;;7.37;;
13122;SDS011;6627;50.920;12.050;2023-02-13T12:46:08;8.60;;;7.47;;
13122;SDS011;6627;50.920;12.050;2023-02-13T12:48:44;9.67;;;7.73;;
13122;SDS011;6627;50.920;12.050;2023-02-13T12:51:25;8.10;;;7.13;;
13122;SDS011;6627;50.920;12.050;2023-02-13T12:54:14;7.83;;;7.03;;
13122;SDS011;6627;50.920;12.050;2023-02-13T12:57:08;8.23;;;7.00;;
13122;SDS011;6627;50.920;12.050;2023-02-13T12:59:53;9.43;;;8.43;;
13122;SDS011;6627;50.920;12.050;2023-02-13T13:02:57;8.93;;;7.53;;
13122;SDS011;6627;50.920;12.050;2023-02-13T13:06:00;10.97;;;8.63;;
13122;SDS011;6627;50.920;12.050;2023-02-13T13:09:00;10.33;;;9.27;;
13122;SDS011;6627;50.920;12.050;2023-02-13T13:11:59;12.00;;;9.57;;
13122;SDS011;6627;50.920;12.050;2023-02-13T13:14:40;9.67;;;8.67;;
13122;SDS011;6627;50.920;12.050;2023-02-13T13:17:21;11.23;;;10.03;;
13122;SDS011;6627;50.920;12.050;2023-02-13T13:20:02;9.33;;;8.37;;
13122;SDS011;6627;50.920;12.050;2023-02-13T13:22:57;9.90;;;8.17;;
13122;SDS011;6627;50.920;12.050;2023-02-13T13:25:38;10.80;;;9.60;;
13122;SDS011;6627;50.920;12.050;2023-02-13T13:28:20;10.33;;;9.33;;
13122;SDS011;6627;50.920;12.050;2023-02-13T13:30:53;11.30;;;10.10;;
13122;SDS011;6627;50.920;12.050;2023-02-13T13:33:24;12.63;;;8.90;;
13122;SDS011;6627;50.920;12.050;2023-02-13T13:35:56;9.07;;;8.10;;
13122;SDS011;6627;50.920;12.050;2023-02-13T13:38:39;9.20;;;8.30;;
13122;SDS011;6627;50.920;12.050;2023-02-13T13:41:18;9.80;;;7.90;;
13122;SDS011;6627;50.920;12.050;2023-02-13T13:44:12;8.10;;;7.30;;
13122;SDS011;6627;50.920;12.050;2023-02-13T13:47:09;8.17;;;7.37;;
13122;SDS011;6627;50.920;12.050;2023-02-13T13:49:53;9.60;;;8.60;;
13122;SDS011;6627;50.920;12.050;2023-02-13T13:52:25;8.83;;;7.93;;
13122;SDS011;6627;50.920;12.050;2023-02-13T13:54:56;10.43;;;9.13;;
13122;SDS011;6627;50.920;12.050;2023-02-13T14:00:28;12.43;;;7.87;;
13122;SDS011;6627;50.920;12.050;2023-02-13T14:03:18;12.93;;;8.70;;
13122;SDS011;6627;50.920;12.050;2023-02-13T14:05:57;10.03;;;7.57;;
13122;SDS011;6627;50.920;12.050;2023-02-13T14:18:18;8.47;;;6.70;;
13122;SDS011;6627;50.920;12.050;2023-02-13T14:20:49;7.93;;;6.97;;
13122;SDS011;6627;50.920;12.050;2023-02-13T14:23:29;7.93;;;6.90;;
13122;SDS011;6627;50.920;12.050;2023-02-13T14:26:28;7.37;;;6.67;;
13122;SDS011;6627;50.920;12.050;2023-02-13T14:29:25;7.17;;;6.50;;
13122;SDS011;6627;50.920;12.050;2023-02-13T14:32:01;9.77;;;8.03;;
13122;SDS011;6627;50.920;12.050;2023-02-13T14:34:54;8.83;;;7.47;;
13122;SDS011;6627;50.920;12.050;2023-02-13T14:37:31;7.57;;;6.77;;
13122;SDS011;6627;50.920;12.050;2023-02-13T14:43:18;8.20;;;6.77;;
13122;SDS011;6627;50.920;12.050;2023-02-13T14:45:57;7.80;;;7.00;;
13122;SDS011;6627;50.920;12.050;2023-02-13T14:48:39;8.17;;;6.57;;
13122;SDS011;6627;50.920;12.050;2023-02-13T14:51:16;6.80;;;6.20;;
13122;SDS011;6627;50.920;12.050;2023-02-13T14:53:54;7.77;;;6.63;;
13122;SDS011;6627;50.920;12.050;2023-02-13T14:56:34;6.60;;;6.00;;
13122;SDS011;6627;50.920;12.050;2023-02-13T14:59:09;7.97;;;6.73;;
13122;SDS011;6627;50.920;12.050;2023-02-13T15:01:44;9.73;;;6.37;;
13122;SDS011;6627;50.920;12.050;2023-02-13T15:04:24;6.80;;;6.10;;
13122;SDS011;6627;50.920;12.050;2023-02-13T15:06:58;8.70;;;6.73;;
13122;SDS011;6627;50.920;12.050;2023-02-13T15:09:44;8.23;;;6.30;;
13122;SDS011;6627;50.920;12.050;2023-02-13T15:12:26;7.20;;;6.50;;
13122;SDS011;6627;50.920;12.050;2023-02-13T15:14:56;7.77;;;6.30;;
13122;SDS011;6627;50.920;12.050;2023-02-13T15:17:26;7.87;;;7.07;;
13122;SDS011;6627;50.920;12.050;2023-02-13T15:20:24;7.00;;;6.40;;
13122;SDS011;6627;50.920;12.050;2023-02-13T15:22:55;9.83;;;6.67;;
13122;SDS011;6627;50.920;12.050;2023-02-13T15:25:24;7.57;;;6.87;;
13122;SDS011;6627;50.920;12.050;2023-02-13T15:27:59;7.23;;;6.27;;
13122;SDS011;6627;50.920;12.050;2023-02-13T15:30:30;7.33;;;6.47;;
13122;SDS011;6627;50.920;12.050;2023-02-13T15:33:01;6.97;;;6.27;;
13122;SDS011;6627;50.920;12.050;2023-02-13T15:35:44;7.27;;;6.20;;
13122;SDS011;6627;50.920;12.050;2023-02-13T15:38:22;7.33;;;6.60;;
13122;SDS011;6627;50.920;12.050;2023-02-13T15:40:55;6.90;;;6.20;;
13122;SDS011;6627;50.920;12.050;2023-02-13T15:43:31;7.23;;;6.50;;
13122;SDS011;6627;50.920;12.050;2023-02-13T15:46:02;7.03;;;6.33;;
13122;SDS011;6627;50.920;12.050;2023-02-13T15:48:33;18.60;;;13.10;;